sensor_id;sensor_type;location;lat;lon;timestamp;pressure;altitude;pressure_sealevel;temperature;humidity
19811;BME280;10065;49.632;8.346;2024-03-02T08:44:23;99447.97;;;10.47;70.09
19811;BME280;10065;49.632;8.346;2024-03-02T08:46:51;99452.41;;;10.63;69.19
19811;BME280;10065;49.632;8.346;2024-03-02T08:49:19;99451.34;;;10.80;68.24
19811;BME280;10065;49.632;8.346;2024-03-02T08:51:47;99450.22;;;10.98;67.47
19811;BME280;10065;49.632;8.346;2024-03-02T08:54:21;99446.47;;;11.15;66.85
19811;BME280;10065;49.632;8.346;2024-03-02T08:56:50;99445.34;;;11.32;66.25
19811;BME280;10065;49.632;8.346;2024-03-02T08:59:33;99447.63;;;11.35;66.06
19811;BME280;10065;49.632;8.346;2024-03-02T09:02:16;99448.28;;;11.37;65.85
19811;BME280;10065;49.632;8.346;2024-03-02T09:05:20;99443.91;;;11.44;65.35
19811;BME280;10065;49.632;8.346;2024-03-02T09:08:22;99445.81;;;11.58;64.81
19811;BME280;10065;49.632;8.346;2024-03-02T09:11:30;99447.34;;;11.76;64.44
19811;BME280;10065;49.632;8.346;2024-03-02T09:14:15;99438.56;;;11.90;63.89
19811;BME280;10065;49.632;8.346;2024-03-02T09:27:25;99424.81;;;13.38;59.75
19811;BME280;10065;49.632;8.346;2024-03-02T09:30:07;99421.50;;;14.48;56.39
19811;BME280;10065;49.632;8.346;2024-03-02T09:32:55;99421.72;;;15.33;54.45
19811;BME280;10065;49.632;8.346;2024-03-02T09:35:43;99425.88;;;15.89;52.48
19811;BME280;10065;49.632;8.346;2024-03-02T09:38:11;99422.25;;;16.41;50.67
19811;BME280;10065;49.632;8.346;2024-03-02T09:40:42;99419.63;;;16.85;49.39
19811;BME280;10065;49.632;8.346;2024-03-02T09:43:13;99414.81;;;17.01;48.90
19811;BME280;10065;49.632;8.346;2024-03-02T09:45:43;99411.44;;;17.12;48.72
19811;BME280;10065;49.632;8.346;2024-03-02T09:48:13;99422.47;;;17.53;47.22
19811;BME280;10065;49.632;8.346;2024-03-02T09:50:49;99418.28;;;17.89;45.99
19811;BME280;10065;49.632;8.346;2024-03-02T09:53:23;99422.78;;;18.13;45.28
19811;BME280;10065;49.632;8.346;2024-03-02T09:55:56;99419.78;;;18.03;45.27
19811;BME280;10065;49.632;8.346;2024-03-02T10:23:10;99402.66;;;22.93;35.98
19811;BME280;10065;49.632;8.346;2024-03-02T10:25:58;99393.31;;;23.32;35.08
19811;BME280;10065;49.632;8.346;2024-03-02T10:29:25;99393.00;;;25.12;31.99
19811;BME280;10065;49.632;8.346;2024-03-02T10:32:36;99404.41;;;23.04;32.99
19811;BME280;10065;49.632;8.346;2024-03-02T10:36:15;99399.31;;;20.11;36.33
19811;BME280;10065;49.632;8.346;2024-03-02T10:43:00;99387.59;;;17.04;41.62
19811;BME280;10065;49.632;8.346;2024-03-02T10:45:38;99385.38;;;16.49;42.50
19811;BME280;10065;49.632;8.346;2024-03-02T10:48:10;99378.50;;;16.15;43.20
19811;BME280;10065;49.632;8.346;2024-03-02T10:50:40;99378.59;;;15.89;43.73
19811;BME280;10065;49.632;8.346;2024-03-02T10:53:13;99369.53;;;15.77;44.25
19811;BME280;10065;49.632;8.346;2024-03-02T10:55:56;99371.59;;;15.75;45.02
19811;BME280;10065;49.632;8.346;2024-03-02T10:58:33;99378.19;;;15.72;45.08
19811;BME280;10065;49.632;8.346;2024-03-02T11:01:14;99372.66;;;15.74;45.29
19811;BME280;10065;49.632;8.346;2024-03-02T11:03:51;99365.41;;;15.94;45.24
19811;BME280;10065;49.632;8.346;2024-03-02T11:06:31;99355.66;;;16.26;44.75
19811;BME280;10065;49.632;8.346;2024-03-02T11:09:08;99363.72;;;16.64;44.23
19811;BME280;10065;49.632;8.346;2024-03-02T11:12:00;99366.25;;;16.90;44.29
19811;BME280;10065;49.632;8.346;2024-03-02T11:14:41;99364.69;;;17.08;43.56
19811;BME280;10065;49.632;8.346;2024-03-02T11:17:16;99357.25;;;17.41;43.02
19811;BME280;10065;49.632;8.346;2024-03-02T11:19:47;99358.09;;;18.03;41.92
19811;BME280;10065;49.632;8.346;2024-03-02T11:22:30;99349.22;;;18.87;40.62
19811;BME280;10065;49.632;8.346;2024-03-02T11:25:00;99341.66;;;19.72;39.03
19811;BME280;10065;49.632;8.346;2024-03-02T11:28:00;99338.91;;;20.19;37.23
19811;BME280;10065;49.632;8.346;2024-03-02T11:33:53;99344.09;;;21.89;35.78
19811;BME280;10065;49.632;8.346;2024-03-02T11:36:42;99332.53;;;22.32;35.24
19811;BME280;10065;49.632;8.346;2024-03-02T11:39:39;99318.22;;;22.80;33.93
19811;BME280;10065;49.632;8.346;2024-03-02T11:42:11;99309.88;;;23.93;32.11
19811;BME280;10065;49.632;8.346;2024-03-02T11:44:45;99304.81;;;25.65;29.39
19811;BME280;10065;49.632;8.346;2024-03-02T11:47:16;99307.69;;;26.69;27.73
19811;BME280;10065;49.632;8.346;2024-03-02T11:49:51;99294.59;;;27.15;27.37
19811;BME280;10065;49.632;8.346;2024-03-02T11:52:20;99300.00;;;27.78;26.37
19811;BME280;10065;49.632;8.346;2024-03-02T11:54:50;99286.59;;;28.29;25.70
19811;BME280;10065;49.632;8.346;2024-03-02T11:57:22;99293.16;;;27.51;25.49
19811;BME280;10065;49.632;8.346;2024-03-02T11:59:55;99292.97;;;26.20;26.17
19811;BME280;10065;49.632;8.346;2024-03-02T12:02:30;99281.25;;;25.20;27.56
19811;BME280;10065;49.632;8.346;2024-03-02T12:05:05;99280.19;;;24.13;29.14
19811;BME280;10065;49.632;8.346;2024-03-02T12:07:41;99279.97;;;23.68;29.69
19811;BME280;10065;49.632;8.346;2024-03-02T12:10:10;99274.47;;;23.52;29.88
19811;BME280;10065;49.632;8.346;2024-03-02T12:12:39;99273.72;;;23.57;29.78
19811;BME280;10065;49.632;8.346;2024-03-02T12:15:10;99259.75;;;23.85;29.94
19811;BME280;10065;49.632;8.346;2024-03-02T12:17:48;99266.19;;;24.31;29.55
19811;BME280;10065;49.632;8.346;2024-03-02T12:20:22;99259.47;;;24.54;29.00
19811;BME280;10065;49.632;8.346;2024-03-02T12:22:52;99259.19;;;23.78;29.40
19811;BME280;10065;49.632;8.346;2024-03-02T12:25:23;99263.59;;;23.47;30.15
19811;BME280;10065;49.632;8.346;2024-03-02T12:27:54;99263.94;;;23.19;30.67
19811;BME280;10065;49.632;8.346;2024-03-02T12:30:26;99259.44;;;22.71;30.32
19811;BME280;10065;49.632;8.346;2024-03-02T12:33:02;99260.78;;;22.68;30.63
19811;BME280;10065;49.632;8.346;2024-03-02T12:35:45;99258.81;;;22.85;30.65
19811;BME280;10065;49.632;8.346;2024-03-02T12:38:20;99246.13;;;22.59;30.94
19811;BME280;10065;49.632;8.346;2024-03-02T12:41:05;99252.22;;;21.79;31.97
19811;BME280;10065;49.632;8.346;2024-03-02T12:43:59;99246.19;;;20.83;32.95
19811;BME280;10065;49.632;8.346;2024-03-02T12:46:32;99244.56;;;20.37;33.58
19811;BME280;10065;49.632;8.346;2024-03-02T12:49:24;99242.25;;;20.17;34.11
19811;BME280;10065;49.632;8.346;2024-03-02T12:52:16;99240.84;;;20.88;33.20
19811;BME280;10065;49.632;8.346;2024-03-02T12:55:14;99234.88;;;21.97;32.30
19811;BME280;10065;49.632;8.346;2024-03-02T12:57:46;99225.72;;;23.47;30.21
19811;BME280;10065;49.632;8.346;2024-03-02T13:00:29;99221.56;;;23.72;29.20
19811;BME280;10065;49.632;8.346;2024-03-02T13:03:03;99222.97;;;22.68;30.24
19811;BME280;10065;49.632;8.346;2024-03-02T13:05:49;99217.81;;;22.67;31.45
19811;BME280;10065;49.632;8.346;2024-03-02T13:08:25;99216.34;;;22.54;30.78
19811;BME280;10065;49.632;8.346;2024-03-02T13:10:57;99215.16;;;22.18;31.39
19811;BME280;10065;49.632;8.346;2024-03-02T13:13:35;99206.56;;;22.21;31.29
19811;BME280;10065;49.632;8.346;2024-03-02T13:16:20;99208.41;;;21.72;32.31
19811;BME280;10065;49.632;8.346;2024-03-02T13:18:58;99203.44;;;21.42;32.75
19811;BME280;10065;49.632;8.346;2024-03-02T13:21:51;99210.13;;;21.39;32.88
19811;BME280;10065;49.632;8.346;2024-03-02T13:24:48;99205.41;;;20.96;32.63
19811;BME280;10065;49.632;8.346;2024-03-02T13:27:48;99206.22;;;20.47;33.53
19811;BME280;10065;49.632;8.346;2024-03-02T13:30:16;99194.56;;;20.13;33.14
19811;BME280;10065;49.632;8.346;2024-03-02T13:32:45;99192.72;;;19.62;34.28
19811;BME280;10065;49.632;8.346;2024-03-02T13:35:16;99192.72;;;19.27;35.34
19811;BME280;10065;49.632;8.346;2024-03-02T13:38:00;99188.06;;;19.10;35.89
19811;BME280;10065;49.632;8.346;2024-03-02T13:40:35;99187.38;;;18.92;36.25
19811;BME280;10065;49.632;8.346;2024-03-02T13:43:06;99193.09;;;18.72;36.44
19811;BME280;10065;49.632;8.346;2024-03-02T13:45:36;99190.00;;;18.57;36.43
19811;BME280;10065;49.632;8.346;2024-03-02T13:48:07;99193.00;;;18.49;36.57
19811;BME280;10065;49.632;8.346;2024-03-02T13:50:38;99186.09;;;18.41;36.63
19811;BME280;10065;49.632;8.346;2024-03-02T13:53:16;99192.50;;;18.28;37.27
19811;BME280;10065;49.632;8.346;2024-03-02T13:55:50;99182.72;;;18.04;37.28
19811;BME280;10065;49.632;8.346;2024-03-02T13:58:37;99190.94;;;17.91;37.71
19811;BME280;10065;49.632;8.346;2024-03-02T14:01:21;99186.94;;;17.82;37.81
19811;BME280;10065;49.632;8.346;2024-03-02T14:04:03;99180.13;;;17.67;38.64
19811;BME280;10065;49.632;8.346;2024-03-02T14:06:34;99176.16;;;17.70;38.37
19811;BME280;10065;49.632;8.346;2024-03-02T14:09:03;99170.72;;;17.58;38.19
19811;BME280;10065;49.632;8.346;2024-03-02T14:11:41;99174.88;;;17.54;38.70
19811;BME280;10065;49.632;8.346;2024-03-02T14:14:10;99169.13;;;17.51;37.89
19811;BME280;10065;49.632;8.346;2024-03-02T14:19:27;99167.78;;;17.42;38.05
19811;BME280;10065;49.632;8.346;2024-03-02T14:21:56;99172.78;;;17.20;38.44
19811;BME280;10065;49.632;8.346;2024-03-02T14:24:41;99160.50;;;17.12;38.71
19811;BME280;10065;49.632;8.346;2024-03-02T14:27:15;99158.19;;;17.16;38.87
19811;BME280;10065;49.632;8.346;2024-03-02T14:30:08;99155.97;;;17.13;39.13
19811;BME280;10065;49.632;8.346;2024-03-02T14:32:42;99168.63;;;17.06;38.81
19811;BME280;10065;49.632;8.346;2024-03-02T14:35:15;99157.13;;;16.99;38.98
19811;BME280;10065;49.632;8.346;2024-03-02T14:37:47;99157.44;;;17.09;38.84
19811;BME280;10065;49.632;8.346;2024-03-02T14:40:20;99153.28;;;17.13;38.35
19811;BME280;10065;49.632;8.346;2024-03-02T14:42:54;99153.28;;;17.13;38.55
19811;BME280;10065;49.632;8.346;2024-03-02T14:45:27;99153.13;;;17.08;38.60
19811;BME280;10065;49.632;8.346;2024-03-02T14:47:57;99143.00;;;16.91;38.92
19811;BME280;10065;49.632;8.346;2024-03-02T14:50:30;99140.59;;;16.83;39.41
19811;BME280;10065;49.632;8.346;2024-03-02T14:52:58;99139.56;;;16.84;39.47
19811;BME280;10065;49.632;8.346;2024-03-02T14:55:28;99131.81;;;16.76;39.77
19811;BME280;10065;49.632;8.346;2024-03-02T14:58:09;99133.78;;;16.63;40.02
19811;BME280;10065;49.632;8.346;2024-03-02T15:00:46;99128.31;;;16.51;40.51
19811;BME280;10065;49.632;8.346;2024-03-02T15:03:22;99131.81;;;16.51;40.77
19811;BME280;10065;49.632;8.346;2024-03-02T15:05:59;99125.72;;;16.38;40.93
19811;BME280;10065;49.632;8.346;2024-03-02T15:08:32;99123.94;;;16.32;41.42
19811;BME280;10065;49.632;8.346;2024-03-02T15:11:01;99114.47;;;16.29;41.05
19811;BME280;10065;49.632;8.346;2024-03-02T15:13:50;99118.09;;;16.16;41.58
19811;BME280;10065;49.632;8.346;2024-03-02T15:16:21;99114.88;;;16.01;42.20
19811;BME280;10065;49.632;8.346;2024-03-02T15:18:54;99104.41;;;16.00;41.97
19811;BME280;10065;49.632;8.346;2024-03-02T15:21:37;99111.22;;;15.96;42.48
19811;BME280;10065;49.632;8.346;2024-03-02T15:24:09;99103.03;;;15.91;42.73
19811;BME280;10065;49.632;8.346;2024-03-02T15:26:37;99100.13;;;15.92;42.97
19811;BME280;10065;49.632;8.346;2024-03-02T15:29:11;99107.13;;;15.93;42.76
19811;BME280;10065;49.632;8.346;2024-03-02T15:31:41;99104.28;;;15.88;43.00
19811;BME280;10065;49.632;8.346;2024-03-02T15:34:20;99096.09;;;15.83;43.27
19811;BME280;10065;49.632;8.346;2024-03-02T15:36:54;99098.16;;;15.81;43.66
19811;BME280;10065;49.632;8.346;2024-03-02T15:39:28;99095.50;;;15.81;43.52
19811;BME280;10065;49.632;8.346;2024-03-02T15:42:07;99099.63;;;15.77;43.91
19811;BME280;10065;49.632;8.346;2024-03-02T15:44:53;99094.72;;;15.74;43.68
19811;BME280;10065;49.632;8.346;2024-03-02T15:47:21;99097.81;;;15.71;43.90
19811;BME280;10065;49.632;8.346;2024-03-02T15:49:55;99093.69;;;15.68;44.13
19811;BME280;10065;49.632;8.346;2024-03-02T15:52:51;99089.59;;;15.66;44.40
19811;BME280;10065;49.632;8.346;2024-03-02T15:55:32;99096.22;;;15.63;44.52
19811;BME280;10065;49.632;8.346;2024-03-02T15:58:10;99079.78;;;15.60;44.83
19811;BME280;10065;49.632;8.346;2024-03-02T16:04:34;99087.19;;;15.58;44.73
19811;BME280;10065;49.632;8.346;2024-03-02T16:08:02;99086.38;;;15.51;45.00
19811;BME280;10065;49.632;8.346;2024-03-02T16:10:36;99087.84;;;15.47;45.03
19811;BME280;10065;49.632;8.346;2024-03-02T16:13:07;99086.41;;;15.44;45.26
19811;BME280;10065;49.632;8.346;2024-03-02T16:15:36;99082.28;;;15.41;45.36
19811;BME280;10065;49.632;8.346;2024-03-02T16:18:05;99083.16;;;15.35;45.30
19811;BME280;10065;49.632;8.346;2024-03-02T16:20:34;99073.34;;;15.29;45.30
19811;BME280;10065;49.632;8.346;2024-03-02T16:23:02;99081.75;;;15.26;45.80
19811;BME280;10065;49.632;8.346;2024-03-02T16:25:31;99082.16;;;15.23;45.49
19811;BME280;10065;49.632;8.346;2024-03-02T16:27:58;99072.34;;;15.17;46.07
19811;BME280;10065;49.632;8.346;2024-03-02T16:30:29;99084.47;;;15.13;46.11
19811;BME280;10065;49.632;8.346;2024-03-02T16:32:57;99081.22;;;15.11;46.33
19811;BME280;10065;49.632;8.346;2024-03-02T16:35:25;99081.63;;;15.08;46.26
19811;BME280;10065;49.632;8.346;2024-03-02T16:37:54;99077.13;;;15.02;46.71
19811;BME280;10065;49.632;8.346;2024-03-02T16:40:21;99075.91;;;14.98;47.02
19811;BME280;10065;49.632;8.346;2024-03-02T16:42:49;99077.13;;;14.95;47.44
19811;BME280;10065;49.632;8.346;2024-03-02T16:45:18;99074.06;;;14.92;47.52
19811;BME280;10065;49.632;8.346;2024-03-02T16:47:46;99077.34;;;14.87;47.99
19811;BME280;10065;49.632;8.346;2024-03-02T16:50:15;99077.19;;;14.82;48.15
19811;BME280;10065;49.632;8.346;2024-03-02T16:52:43;99071.44;;;14.79;48.15
19811;BME280;10065;49.632;8.346;2024-03-02T16:55:13;99076.75;;;14.79;47.92
19811;BME280;10065;49.632;8.346;2024-03-02T16:57:42;99069.00;;;14.77;48.10
19811;BME280;10065;49.632;8.346;2024-03-02T17:00:11;99071.88;;;14.76;48.04
19811;BME280;10065;49.632;8.346;2024-03-02T17:02:40;99076.59;;;14.74;48.69
19811;BME280;10065;49.632;8.346;2024-03-02T17:05:09;99077.59;;;14.73;48.70
19811;BME280;10065;49.632;8.346;2024-03-02T17:07:37;99063.66;;;14.71;48.51
19811;BME280;10065;49.632;8.346;2024-03-02T17:10:06;99067.13;;;14.71;48.46
19811;BME280;10065;49.632;8.346;2024-03-02T17:12:36;99063.06;;;14.68;48.86
19811;BME280;10065;49.632;8.346;2024-03-02T17:15:04;99058.75;;;14.67;49.63
19811;BME280;10065;49.632;8.346;2024-03-02T17:17:32;99059.56;;;14.68;49.82
19811;BME280;10065;49.632;8.346;2024-03-02T17:20:03;99062.25;;;14.68;49.65
19811;BME280;10065;49.632;8.346;2024-03-02T17:22:35;99062.44;;;14.66;49.62
19811;BME280;10065;49.632;8.346;2024-03-02T17:25:04;99053.00;;;14.64;49.75
19811;BME280;10065;49.632;8.346;2024-03-02T17:27:32;99053.81;;;14.64;49.96
19811;BME280;10065;49.632;8.346;2024-03-02T17:30:02;99055.47;;;14.65;50.06
19811;BME280;10065;49.632;8.346;2024-03-02T17:32:31;99047.88;;;14.62;49.48
19811;BME280;10065;49.632;8.346;2024-03-02T17:34:59;99054.22;;;14.61;49.19
19811;BME280;10065;49.632;8.346;2024-03-02T17:37:28;99052.81;;;14.59;49.60
19811;BME280;10065;49.632;8.346;2024-03-02T17:39:56;99040.72;;;14.56;49.56
19811;BME280;10065;49.632;8.346;2024-03-02T17:42:24;99044.41;;;14.55;49.83
19811;BME280;10065;49.632;8.346;2024-03-02T17:44:54;99047.88;;;14.56;49.62
19811;BME280;10065;49.632;8.346;2024-03-02T17:47:24;99044.41;;;14.55;49.36
19811;BME280;10065;49.632;8.346;2024-03-02T17:49:53;99042.75;;;14.54;49.51
19811;BME280;10065;49.632;8.346;2024-03-02T17:52:21;99031.47;;;14.52;49.85
19811;BME280;10065;49.632;8.346;2024-03-02T17:54:49;99022.66;;;14.52;49.83
19811;BME280;10065;49.632;8.346;2024-03-02T17:57:17;99031.06;;;14.55;50.04
19811;BME280;10065;49.632;8.346;2024-03-02T17:59:45;99038.25;;;14.55;50.43
19811;BME280;10065;49.632;8.346;2024-03-02T18:02:13;99033.94;;;14.54;49.99
19811;BME280;10065;49.632;8.346;2024-03-02T18:04:42;99040.50;;;14.51;50.03
19811;BME280;10065;49.632;8.346;2024-03-02T18:07:10;99049.53;;;14.50;50.20
19811;BME280;10065;49.632;8.346;2024-03-02T18:09:38;99040.94;;;14.48;50.93
19811;BME280;10065;49.632;8.346;2024-03-02T18:12:06;99038.47;;;14.47;51.22
19811;BME280;10065;49.632;8.346;2024-03-02T18:14:34;99031.69;;;14.44;51.33
19811;BME280;10065;49.632;8.346;2024-03-02T18:17:05;99037.03;;;14.44;51.60
19811;BME280;10065;49.632;8.346;2024-03-02T18:19:33;99050.34;;;14.44;51.43
19811;BME280;10065;49.632;8.346;2024-03-02T18:22:03;99051.38;;;14.43;51.81
19811;BME280;10065;49.632;8.346;2024-03-02T18:24:39;99044.00;;;14.39;51.58
19811;BME280;10065;49.632;8.346;2024-03-02T18:27:08;99045.66;;;14.40;51.33
19811;BME280;10065;49.632;8.346;2024-03-02T18:29:37;99041.50;;;14.37;51.29
19811;BME280;10065;49.632;8.346;2024-03-02T18:32:06;99038.22;;;14.35;50.62
19811;BME280;10065;49.632;8.346;2024-03-02T18:34:40;99037.63;;;14.33;51.61
19811;BME280;10065;49.632;8.346;2024-03-02T18:37:10;99034.97;;;14.33;51.26
19811;BME280;10065;49.632;8.346;2024-03-02T18:39:42;99024.31;;;14.33;50.98
19811;BME280;10065;49.632;8.346;2024-03-02T18:42:21;99029.66;;;14.33;50.96
19811;BME280;10065;49.632;8.346;2024-03-02T18:44:53;99029.22;;;14.29;50.70
19811;BME280;10065;49.632;8.346;2024-03-02T18:47:24;99032.09;;;14.28;51.25
19811;BME280;10065;49.632;8.346;2024-03-02T18:49:53;99034.13;;;14.26;51.71
19811;BME280;10065;49.632;8.346;2024-03-02T18:52:23;99026.13;;;14.26;51.15
19811;BME280;10065;49.632;8.346;2024-03-02T18:54:55;99028.81;;;14.26;50.42
19811;BME280;10065;49.632;8.346;2024-03-02T18:57:24;99019.41;;;14.23;50.72
19811;BME280;10065;49.632;8.346;2024-03-02T18:59:54;99031.69;;;14.24;50.84
19811;BME280;10065;49.632;8.346;2024-03-02T19:02:22;99039.91;;;14.23;50.50
19811;BME280;10065;49.632;8.346;2024-03-02T19:04:50;99035.78;;;14.20;49.97
19811;BME280;10065;49.632;8.346;2024-03-02T19:07:19;99040.50;;;14.18;50.51
19811;BME280;10065;49.632;8.346;2024-03-02T19:09:49;99039.69;;;14.18;49.94
19811;BME280;10065;49.632;8.346;2024-03-02T19:12:17;99028.44;;;14.16;49.87
19811;BME280;10065;49.632;8.346;2024-03-02T19:14:45;99035.81;;;14.14;50.49
19811;BME280;10065;49.632;8.346;2024-03-02T19:17:17;99032.91;;;14.09;50.08
19811;BME280;10065;49.632;8.346;2024-03-02T19:19:45;99034.56;;;14.03;50.39
19811;BME280;10065;49.632;8.346;2024-03-02T19:22:13;99041.13;;;14.01;50.72
19811;BME280;10065;49.632;8.346;2024-03-02T19:24:42;99044.81;;;14.00;50.93
19811;BME280;10065;49.632;8.346;2024-03-02T19:27:11;99048.91;;;13.96;50.96
19811;BME280;10065;49.632;8.346;2024-03-02T19:29:40;99042.34;;;13.91;51.01
19811;BME280;10065;49.632;8.346;2024-03-02T19:35:40;99046.66;;;13.92;52.13
19811;BME280;10065;49.632;8.346;2024-03-02T19:38:12;99049.13;;;13.87;51.68
19811;BME280;10065;49.632;8.346;2024-03-02T19:41:49;99045.19;;;13.83;52.08
19811;BME280;10065;49.632;8.346;2024-03-02T19:44:07;99054.84;;;13.78;52.17
19811;BME280;10065;49.632;8.346;2024-03-02T19:46:41;99051.34;;;13.77;52.69
19811;BME280;10065;49.632;8.346;2024-03-02T19:49:16;99046.84;;;13.78;52.96
19811;BME280;10065;49.632;8.346;2024-03-02T19:51:50;99051.97;;;13.79;53.08
19811;BME280;10065;49.632;8.346;2024-03-02T19:54:22;99044.19;;;13.78;52.95
19811;BME280;10065;49.632;8.346;2024-03-02T19:57:00;99051.34;;;13.77;53.23
19811;BME280;10065;49.632;8.346;2024-03-02T19:59:47;99048.88;;;13.76;53.28
19811;BME280;10065;49.632;8.346;2024-03-02T20:02:19;99051.34;;;13.77;53.39
19811;BME280;10065;49.632;8.346;2024-03-02T20:04:54;99046.63;;;13.73;53.11
19811;BME280;10065;49.632;8.346;2024-03-02T20:07:23;99045.59;;;13.74;53.53
19811;BME280;10065;49.632;8.346;2024-03-02T20:09:58;99042.13;;;13.73;53.65
19811;BME280;10065;49.632;8.346;2024-03-02T20:12:29;99036.59;;;13.68;54.03
19811;BME280;10065;49.632;8.346;2024-03-02T20:15:04;99033.72;;;13.63;54.06
19811;BME280;10065;49.632;8.346;2024-03-02T20:17:36;99033.09;;;13.61;54.29
19811;BME280;10065;49.632;8.346;2024-03-02T20:20:12;99025.72;;;13.63;54.55
19811;BME280;10065;49.632;8.346;2024-03-02T20:22:50;99023.06;;;13.63;55.13
19811;BME280;10065;49.632;8.346;2024-03-02T20:25:35;99023.47;;;13.60;54.99
19811;BME280;10065;49.632;8.346;2024-03-02T20:32:00;99011.56;;;13.49;55.37
19811;BME280;10065;49.632;8.346;2024-03-02T20:34:43;99012.78;;;13.47;55.56
19811;BME280;10065;49.632;8.346;2024-03-02T20:37:14;99006.84;;;13.45;55.56
19811;BME280;10065;49.632;8.346;2024-03-02T20:39:49;99003.56;;;13.43;55.73
19811;BME280;10065;49.632;8.346;2024-03-02T20:42:20;99002.75;;;13.42;55.77
19811;BME280;10065;49.632;8.346;2024-03-02T20:44:50;98996.78;;;13.40;56.23
19811;BME280;10065;49.632;8.346;2024-03-02T20:47:21;99000.28;;;13.41;56.06
19811;BME280;10065;49.632;8.346;2024-03-02T20:49:53;98997.63;;;13.41;56.47
19811;BME280;10065;49.632;8.346;2024-03-02T20:52:32;98996.59;;;13.42;56.33
19811;BME280;10065;49.632;8.346;2024-03-02T20:55:01;98998.44;;;13.41;56.34
19811;BME280;10065;49.632;8.346;2024-03-02T20:57:32;99000.91;;;13.43;56.24
19811;BME280;10065;49.632;8.346;2024-03-02T21:00:01;98992.28;;;13.41;56.46
19811;BME280;10065;49.632;8.346;2024-03-02T21:02:35;98992.28;;;13.41;56.30
19811;BME280;10065;49.632;8.346;2024-03-02T21:05:05;98990.63;;;13.40;56.62
19811;BME280;10065;49.632;8.346;2024-03-02T21:07:34;98987.97;;;13.40;56.79
19811;BME280;10065;49.632;8.346;2024-03-02T21:10:16;98986.53;;;13.37;57.52
19811;BME280;10065;49.632;8.346;2024-03-02T21:12:46;98989.44;;;13.36;57.65
19811;BME280;10065;49.632;8.346;2024-03-02T21:15:21;98987.78;;;13.35;57.41
19811;BME280;10065;49.632;8.346;2024-03-02T21:18:33;98991.06;;;13.37;57.63
19811;BME280;10065;49.632;8.346;2024-03-02T21:21:05;98990.00;;;13.38;57.52
19811;BME280;10065;49.632;8.346;2024-03-02T21:23:50;98991.06;;;13.37;57.73
19811;BME280;10065;49.632;8.346;2024-03-02T21:26:26;98993.94;;;13.35;58.01
19811;BME280;10065;49.632;8.346;2024-03-02T21:29:12;98985.13;;;13.35;58.03
19811;BME280;10065;49.632;8.346;2024-03-02T21:31:50;98989.44;;;13.36;57.65
19811;BME280;10065;49.632;8.346;2024-03-02T21:34:25;98994.75;;;13.36;58.35
19811;BME280;10065;49.632;8.346;2024-03-02T21:37:01;99008.25;;;13.34;58.03
19811;BME280;10065;49.632;8.346;2024-03-02T21:39:30;99005.97;;;13.31;58.33
19811;BME280;10065;49.632;8.346;2024-03-02T21:42:09;99012.31;;;13.30;58.79
19811;BME280;10065;49.632;8.346;2024-03-02T21:44:41;99007.41;;;13.27;59.15
19811;BME280;10065;49.632;8.346;2024-03-02T21:47:15;99012.94;;;13.26;58.85
19811;BME280;10065;49.632;8.346;2024-03-02T21:49:52;99010.66;;;13.23;58.75
19811;BME280;10065;49.632;8.346;2024-03-02T21:52:26;99011.88;;;13.20;58.96
19811;BME280;10065;49.632;8.346;2024-03-02T21:55:14;99007.81;;;13.17;59.19
19811;BME280;10065;49.632;8.346;2024-03-02T21:57:50;99013.50;;;13.14;59.50
19811;BME280;10065;49.632;8.346;2024-03-02T22:00:22;99019.19;;;13.11;59.47
19811;BME280;10065;49.632;8.346;2024-03-02T22:02:54;99019.59;;;13.08;59.60
19811;BME280;10065;49.632;8.346;2024-03-02T22:05:26;99005.03;;;13.04;59.45
19811;BME280;10065;49.632;8.346;2024-03-02T22:07:56;99011.56;;;13.02;59.68
19811;BME280;10065;49.632;8.346;2024-03-02T22:10:29;99007.50;;;12.99;59.54
19811;BME280;10065;49.632;8.346;2024-03-02T22:12:59;99011.19;;;12.98;60.19
19811;BME280;10065;49.632;8.346;2024-03-02T22:16:27;99009.91;;;12.94;60.13
19811;BME280;10065;49.632;8.346;2024-03-02T22:18:58;99010.16;;;12.99;59.93
19811;BME280;10065;49.632;8.346;2024-03-02T22:21:40;99003.81;;;13.00;60.27
19811;BME280;10065;49.632;8.346;2024-03-02T22:24:12;98996.84;;;12.99;60.45
19811;BME280;10065;49.632;8.346;2024-03-02T22:26:46;98999.50;;;12.99;60.17
19811;BME280;10065;49.632;8.346;2024-03-02T22:29:21;98999.50;;;12.99;60.44
19811;BME280;10065;49.632;8.346;2024-03-02T22:31:53;98995.41;;;12.97;60.63
19811;BME280;10065;49.632;8.346;2024-03-02T22:34:22;98995.59;;;12.95;60.77
19811;BME280;10065;49.632;8.346;2024-03-02T22:36:52;98992.94;;;12.95;60.78
